Site contains unofficial IBTrACS data. Visit the IBTrACS Website to access archived data.

1883 Tropical Storm NOT_NAMED (1883260N13332)


IBTrACS version v04r00. Visit IBTrACS website for data access.
Please direct all questions to the IBTrACS Q and A forum

Storm track - Intensity - Wind Radii - Intensity Data - Source Data - All data

Summary Information

Storm ID 1883260N13332
Start Sep 16 12Z
Max Intensity 50 kt (Sep 19 06Z), 979 mb (Sep 22 12Z)
End Sep 23 12Z
ATCF IDs
Track status Best track data.

Storm track plot

Map of storm track

Intensity plots

Map of storm track

Radial wind information

No radial wind information for this storm


Position and Intensity Table

BASIN ISO_TIME_________ NATURE LAT LON MLC WIND MLC PRES
degrees north degrees east kts mb
NA 1883-09-16 12:00:00 TS 12.50 -28.00 25
NA 15:00:00 TS 12.66 -28.50 25
NA 18:00:00 TS 12.80 -29.00 25
NA 21:00:00 TS 12.90 -29.50 27
NA 1883-09-17 00:00:00 TS 13.00 -30.00 30
NA 03:00:00 TS 13.15 -30.50 30
NA 06:00:00 TS 13.30 -31.00 30
NA 09:00:00 TS 13.32 -31.43 32
NA 12:00:00 TS 13.50 -32.00 35
NA 15:00:00 TS 14.08 -32.96 35
NA 18:00:00 TS 14.80 -33.90 35
NA 21:00:00 TS 15.40 -34.39 37
NA 1883-09-18 00:00:00 TS 16.00 -34.80 40
NA 03:00:00 TS 16.65 -35.47 40
NA 06:00:00 TS 17.30 -36.20 40
NA 09:00:00 TS 17.87 -36.90 42
NA 12:00:00 TS 18.50 -37.50 45
NA 15:00:00 TS 19.32 -37.95 45
NA 18:00:00 TS 20.20 -38.30 45
NA 21:00:00 TS 21.01 -38.65 45
NA 1883-09-19 00:00:00 TS 21.80 -39.00 45
NA 03:00:00 TS 22.60 -39.40 47
NA 06:00:00 TS 23.40 -39.80 50
NA 09:00:00 TS 24.21 -40.18 50
NA 12:00:00 TS 25.00 -40.50 50
NA 15:00:00 TS 25.76 -40.73 50
NA 18:00:00 TS 26.50 -40.90 50
NA 21:00:00 TS 27.25 -41.10 50
NA 1883-09-20 00:00:00 TS 28.00 -41.20 50
NA 03:00:00 TS 28.75 -41.10 47
NA 06:00:00 TS 29.50 -40.90 45
NA 09:00:00 TS 30.23 -40.77 45
NA 12:00:00 TS 31.00 -40.50 45
NA 15:00:00 TS 31.89 -39.97 45
NA 18:00:00 TS 32.80 -39.30 45
NA 21:00:00 TS 33.65 -38.58 45
NA 1883-09-21 00:00:00 TS 34.50 -38.00 45
NA 03:00:00 TS 35.40 -37.77 45
NA 06:00:00 TS 36.30 -37.70 45
NA 09:00:00 TS 37.12 -37.65 42
NA 12:00:00 TS 38.00 -37.50 40
NA 15:00:00 TS 39.07 -37.06 40
NA 18:00:00 TS 40.20 -36.50 40
NA 21:00:00 TS 41.26 -35.96 40
NA 1883-09-22 00:00:00 ET 42.30 -35.50 40
NA 03:00:00 ET 43.35 -35.21 40
NA 06:00:00 ET 44.40 -35.00 40
NA 09:00:00 ET 45.48 -34.75 40
NA 12:00:00 ET 46.50 -34.50 40 979
NA 15:00:00 ET 47.39 -34.25 40
NA 18:00:00 ET 48.20 -34.00 40
NA 21:00:00 ET 49.01 -33.89 40
NA 1883-09-23 00:00:00 ET 49.80 -33.50 40
NA 03:00:00 ET 50.60 -32.40 37
NA 06:00:00 ET 51.40 -31.00 35
NA 09:00:00 ET 52.20 -29.70 35
NA 12:00:00 ET 53.00 -28.50 35 979

Source Information

Agency Information
USA
TOKYO
CMA
HKO
NEWDELHI
REUNION
BOM
NADI
WELLINGTON
DS824
TD9636
TD9635
NEUMANN
MLC

All available IBTrACS Data

SEASON BASIN SUBBASIN ISO_TIME_________ NATURE LAT LON DIST2LAND LANDFALL IFLAG USA SSHS MLC LAT MLC LON MLC CLASS MLC WIND MLC PRES STORM SPEED STORM DIR
Year degrees north degrees east km km 1 degrees north degrees east kts mb kts degrees
1883 NA NA 1883-09-16 12:00:00 TS 12.50 -28.00 1161 1161 _____________O -1 12.50 -28.00 TD 25 10 288
1883 NA NA 15:00:00 TS 12.66 -28.50 1209 1209 _____________P -1 12.66 -28.50 TD 25 10 287
1883 NA NA 18:00:00 TS 12.80 -29.00 1260 1260 _____________O -1 12.80 -29.00 TD 25 10 284
1883 NA NA 21:00:00 TS 12.90 -29.50 1311 1311 _____________P -1 12.90 -29.50 TD 27 10 282
1883 NA NA 1883-09-17 00:00:00 TS 13.00 -30.00 1363 1363 _____________O -1 13.00 -30.00 TD 30 10 284
1883 NA NA 03:00:00 TS 13.15 -30.50 1415 1413 _____________P -1 13.15 -30.50 TD 30 10 287
1883 NA NA 06:00:00 TS 13.30 -31.00 1465 1465 _____________O -1 13.30 -31.00 TD 30 9 281
1883 NA NA 09:00:00 TS 13.32 -31.43 1508 1508 _____________P -1 13.32 -31.43 TD 32 10 282
1883 NA NA 12:00:00 TS 13.50 -32.00 1570 1570 _____________O -1 13.50 -32.00 TS 35 17 297
1883 NA NA 15:00:00 TS 14.08 -32.96 1671 1671 _____________P -1 14.08 -32.96 TS 35 23 305
1883 NA NA 18:00:00 TS 14.80 -33.90 1763 1763 _____________O -1 14.80 -33.90 TS 35 19 314
1883 NA NA 21:00:00 TS 15.40 -34.39 1816 1816 _____________P -1 15.40 -34.39 TS 37 15 324
1883 NA NA 1883-09-18 00:00:00 TS 16.00 -34.80 1860 1860 _____________O -1 16.00 -34.80 TS 40 16 320
1883 NA NA 03:00:00 TS 16.65 -35.47 1939 1939 _____________P -1 16.65 -35.47 TS 40 19 314
1883 NA NA 06:00:00 TS 17.30 -36.20 2019 2019 _____________O -1 17.30 -36.20 TS 40 18 312
1883 NA NA 09:00:00 TS 17.87 -36.90 2100 2100 _____________P -1 17.87 -36.90 TS 42 17 314
1883 NA NA 12:00:00 TS 18.50 -37.50 2150 2150 _____________O -1 18.50 -37.50 TS 45 18 326
1883 NA NA 15:00:00 TS 19.32 -37.95 2177 2177 _____________P -1 19.32 -37.95 TS 45 19 336
1883 NA NA 18:00:00 TS 20.20 -38.30 2207 2206 _____________O -1 20.20 -38.30 TS 45 18 339
1883 NA NA 21:00:00 TS 21.01 -38.65 2241 2240 _____________P -1 21.01 -38.65 TS 45 17 338
1883 NA NA 1883-09-19 00:00:00 TS 21.80 -39.00 2268 2267 _____________O -1 21.80 -39.00 TS 45 17 336
1883 NA NA 03:00:00 TS 22.60 -39.40 2304 2304 _____________P -1 22.60 -39.40 TS 47 18 335
1883 NA NA 06:00:00 TS 23.40 -39.80 2344 2344 _____________O -1 23.40 -39.80 TS 50 18 336
1883 NA NA 09:00:00 TS 24.21 -40.18 2371 2367 _____________P -1 24.21 -40.18 TS 50 17 338
1883 NA NA 12:00:00 TS 25.00 -40.50 2377 2374 _____________O -1 25.00 -40.50 TS 50 16 342
1883 NA NA 15:00:00 TS 25.76 -40.73 2376 2375 _____________P -1 25.76 -40.73 TS 50 16 347
1883 NA NA 18:00:00 TS 26.50 -40.90 2381 2377 _____________O -1 26.50 -40.90 TS 50 15 347
1883 NA NA 21:00:00 TS 27.25 -41.10 2387 2320 _____________P -1 27.25 -41.10 TS 50 15 350
1883 NA NA 1883-09-20 00:00:00 TS 28.00 -41.20 2320 2252 _____________O -1 28.00 -41.20 TS 50 15 0
1883 NA NA 03:00:00 TS 28.75 -41.10 2252 2180 _____________P -1 28.75 -41.10 TS 47 15 10
1883 NA NA 06:00:00 TS 29.50 -40.90 2180 2114 _____________O -1 29.50 -40.90 TS 45 15 11
1883 NA NA 09:00:00 TS 30.23 -40.77 2114 2048 _____________P -1 30.23 -40.77 TS 45 15 13
1883 NA NA 12:00:00 TS 31.00 -40.50 2048 1994 _____________O -1 31.00 -40.50 TS 45 18 22
1883 NA NA 15:00:00 TS 31.89 -39.97 1984 1934 _____________P -1 31.89 -39.97 TS 45 21 30
1883 NA NA 18:00:00 TS 32.80 -39.30 1934 1892 _____________O -1 32.80 -39.30 TS 45 21 33
1883 NA NA 21:00:00 TS 33.65 -38.58 1888 1851 _____________P -1 33.65 -38.58 TS 45 20 32
1883 NA NA 1883-09-21 00:00:00 TS 34.50 -38.00 1851 1794 _____________O -1 34.50 -38.00 TS 45 19 21
1883 NA NA 03:00:00 TS 35.40 -37.77 1786 1717 _____________P -1 35.40 -37.77 TS 45 18 8
1883 NA NA 06:00:00 TS 36.30 -37.70 1717 1654 _____________O -1 36.30 -37.70 TS 45 17 3
1883 NA NA 09:00:00 TS 37.12 -37.65 1660 1604 _____________P -1 37.12 -37.65 TS 42 17 5
1883 NA NA 12:00:00 TS 38.00 -37.50 1597 1550 _____________O -1 38.00 -37.50 TS 40 20 13
1883 NA NA 15:00:00 TS 39.07 -37.06 1543 1510 _____________P -1 39.07 -37.06 TS 40 23 19
1883 NA NA 18:00:00 TS 40.20 -36.50 1511 1485 _____________O -1 40.20 -36.50 TS 40 23 21
1883 NA NA 21:00:00 TS 41.26 -35.96 1479 1460 _____________P -1 41.26 -35.96 TS 40 22 20
1883 NA NA 1883-09-22 00:00:00 ET 42.30 -35.50 1456 1427 _____________O -1 42.30 -35.50 EX 40 22 15
1883 NA NA 03:00:00 ET 43.35 -35.21 1427 1398 _____________P -1 43.35 -35.21 EX 40 21 10
1883 NA NA 06:00:00 ET 44.40 -35.00 1394 1374 _____________O -1 44.40 -35.00 EX 40 22 9
1883 NA NA 09:00:00 ET 45.48 -34.75 1379 1365 _____________P -1 45.48 -34.75 EX 40 21 9
1883 NA NA 12:00:00 ET 46.50 -34.50 1368 1363 _____________O -1 46.50 -34.50 EX 40 979 19 10
1883 NA NA 15:00:00 ET 47.39 -34.25 1374 1370 _____________P -1 47.39 -34.25 EX 40 17 11
1883 NA NA 18:00:00 ET 48.20 -34.00 1380 1361 _____________O -1 48.20 -34.00 EX 40 16 8
1883 NA NA 21:00:00 ET 49.01 -33.89 1361 1291 _____________P -1 49.01 -33.89 EX 40 16 12
1883 NA NA 1883-09-23 00:00:00 ET 49.80 -33.50 1291 1242 _____________O -1 49.80 -33.50 EX 40 19 31
1883 NA NA 03:00:00 ET 50.60 -32.40 1245 1215 _____________P -1 50.60 -32.40 EX 37 22 45
1883 NA NA 06:00:00 ET 51.40 -31.00 1219 1194 _____________O -1 51.40 -31.00 EX 35 23 46
1883 NA NA 09:00:00 ET 52.20 -29.70 1198 1178 _____________P -1 52.20 -29.70 EX 35 22 44
1883 NA NA 12:00:00 ET 53.00 -28.50 1182 _____________O -1 53.00 -28.50 EX 35 979 22 42